Airfield :
LOGIN :

Register | Disclaimer

   EN    FR    IT 

 










Legend :    VFR   Marginal VFR   IFR   Intensive IFR   Very Intensive IFR
Visi :
Ceiling :
>= 8 km
>= 3000ft
5 to 8 km
1000 to 3000 ft
1500m to 5 km
500 to 1000 ft
800 to 1500m
200 to 500 ft
< 800m
< 200 ft
Symbols :   Thunderstorms  Fog  Heavy snow  Heavy precipitations  Wind > 20 kt
SIGMETs :     Misc.  Thunderstorms  Icing  Turbulence  Mountain Waves  Volcanic Ashes






- Airport Elevation : 235 ft
- IATA code : BZG


EPBY - Bydgoszcz

CURRENT METAR :
  • 090600Z 10009KT 9999 OVC010 M04/M07 Q1009

EXPIRED METARs :
  • 090530Z 10009KT 9999 OVC011 M04/M07 Q1009
  • 090500Z 09009KT 9999 OVC012 M05/M07 Q1009
  • 090430Z 08010KT 9999 OVC042 M05/M08 Q1009
  • 090400Z 08009KT 9999 OVC043 M05/M08 Q1009
  • 090330Z 08008KT 9999 OVC045 M05/M08 Q1009

TAF TAF EPBY
Valid from the 09 at 06:00 until the 10 at 06:00 UTC


090530Z 0906/1006 12010KT 8000 OVC010
TEMPO 0908/0917 5000 BR OVC005
BECMG 0917/0919 3000 -SN BR OVC005
TEMPO 0919/1006 0800 SN BR OVC002



MET'MAP, your aeronautical weather chart ! - Copyright ORBIFLY December 2007 - Disclaimer

ORBIFLY MET'MAP TEAM :

Programming & Development : Alexandra Zaïnal
Concept & original design : Baudouin d'Aumeries
Assistance for programming : Marc-Olivier Méhu
Technical & hardware support : Manuel Goepfert

Contact : metmap@orbifly.com




SOURCES & CREDITS :

   NOAA